Time;durP1;ratioP1;P1;durP2;ratioP2;P2;SDS_P1;SDS_P2;PMS_P1;PMS_P2;Temp;Humidity;BMP_temperature;BMP_pressure;BME280_temperature;BME280_humidity;BME280_pressure;Samples;Min_cycle;Max_cycle;Signal;HPM_P1;HPM_P2
2022/01/31 05:00:13;;;;;;;14.60;3.08;;;4.20;99.90;;;;;;6038125;23;91391;31
2022/01/31 05:02:38;;;;;;;11.55;3.13;;;4.30;99.90;;;;;;4916837;28;88945;-74
2022/01/31 05:05:04;;;;;;;11.32;2.70;;;4.30;99.90;;;;;;4921204;28;89177;-74
2022/01/31 05:07:30;;;;;;;10.50;2.88;;;4.40;99.90;;;;;;4920995;28;89989;-74
2022/01/31 05:09:55;;;;;;;14.63;3.10;;;4.40;99.90;;;;;;4919277;28;91187;-74
2022/01/31 05:12:22;;;;;;;10.35;2.58;;;4.40;99.90;;;;;;4903210;28;88967;-74
2022/01/31 05:14:48;;;;;;;9.45;2.33;;;4.50;99.90;;;;;;4925276;22;89590;-80
2022/01/31 05:17:14;;;;;;;14.05;3.20;;;4.60;99.90;;;;;;4900448;28;92097;-80
2022/01/31 05:19:39;;;;;;;14.25;2.95;;;4.50;99.90;;;;;;4901992;28;89367;-81
2022/01/31 05:22:05;;;;;;;11.80;2.83;;;4.60;99.90;;;;;;4900574;28;89138;-80
2022/01/31 05:24:30;;;;;;;8.77;2.90;;;4.60;99.90;;;;;;4900381;28;88989;-80
2022/01/31 05:26:56;;;;;;;9.32;2.92;;;4.70;99.90;;;;;;4901810;28;91998;-80
2022/01/31 05:29:22;;;;;;;10.85;3.28;;;4.70;99.90;;;;;;4905253;28;92503;-80
2022/01/31 05:31:53;;;;;;;7.53;2.92;;;4.80;99.90;;;;;;4905244;28;89093;-80
2022/01/31 05:34:19;;;;;;;9.40;2.83;;;4.70;99.90;;;;;;4903230;28;90227;-80
2022/01/31 05:36:45;;;;;;;16.23;2.97;;;4.70;99.90;;;;;;4904084;28;91843;-80
2022/01/31 05:39:11;;;;;;;11.13;2.90;;;4.60;99.90;;;;;;4904811;28;89042;-80
2022/01/31 05:41:36;;;;;;;10.90;3.17;;;4.70;99.90;;;;;;4904931;28;88851;-81
2022/01/31 05:44:02;;;;;;;9.50;2.60;;;4.70;99.90;;;;;;4904689;28;89193;-80
2022/01/31 05:46:28;;;;;;;11.45;2.53;;;4.80;99.90;;;;;;4903074;28;92409;-80
2022/01/31 05:48:53;;;;;;;8.63;2.95;;;4.90;99.90;;;;;;4905340;28;89238;-80
2022/01/31 05:51:21;;;;;;;10.45;3.05;;;5.00;99.90;;;;;;4903636;28;88891;-80
2022/01/31 05:53:49;;;;;;;16.50;3.35;;;5.10;99.90;;;;;;4904355;28;88967;-80
2022/01/31 05:56:16;;;;;;;8.00;2.88;;;5.20;99.90;;;;;;4904648;28;91318;-80
2022/01/31 05:58:42;;;;;;;11.10;2.85;;;5.10;99.90;;;;;;4903674;28;92460;-81
2022/01/31 06:01:08;;;;;;;10.20;2.75;;;5.10;99.90;;;;;;4905617;28;88957;-80
2022/01/31 06:03:35;;;;;;;9.63;3.08;;;5.20;99.90;;;;;;4905136;28;89316;-81
2022/01/31 06:06:01;;;;;;;11.18;2.63;;;5.10;99.90;;;;;;4903813;28;92109;-80
2022/01/31 06:08:28;;;;;;;10.30;3.40;;;5.00;99.90;;;;;;4903906;28;92387;-80
2022/01/31 06:10:54;;;;;;;13.45;3.17;;;4.80;99.90;;;;;;4904145;28;88471;-82
2022/01/31 06:13:29;;;;;;;17.40;3.67;;;4.80;99.90;;;;;;4903420;28;88477;-82
2022/01/31 06:15:54;;;;;;;14.32;3.55;;;4.70;99.90;;;;;;4903836;28;93375;-81
2022/01/31 06:18:20;;;;;;;15.18;3.10;;;4.70;99.90;;;;;;4903098;28;91092;-81
2022/01/31 06:20:46;;;;;;;11.65;3.30;;;4.60;99.90;;;;;;4923922;28;88365;-81
2022/01/31 06:23:12;;;;;;;13.40;3.65;;;4.50;99.90;;;;;;4925260;28;88829;-80
2022/01/31 06:25:38;;;;;;;14.93;3.58;;;4.30;99.90;;;;;;4909201;28;89077;-79
2022/01/31 06:28:05;;;;;;;11.68;4.00;;;4.20;99.90;;;;;;4907604;28;91022;-79
2022/01/31 06:30:32;;;;;;;13.50;3.55;;;4.10;99.90;;;;;;4906029;28;89022;-79
2022/01/31 06:32:57;;;;;;;14.32;3.83;;;4.10;99.90;;;;;;4907823;28;89142;-81
2022/01/31 06:35:24;;;;;;;12.45;4.03;;;4.00;99.90;;;;;;4907589;28;92072;-79
2022/01/31 06:37:49;;;;;;;14.30;4.95;;;4.00;99.90;;;;;;4907422;28;89093;-79
2022/01/31 06:40:15;;;;;;;18.17;4.80;;;4.00;99.90;;;;;;4905365;28;89103;-80
2022/01/31 06:42:41;;;;;;;14.05;4.40;;;4.00;99.90;;;;;;4908610;28;88971;-80
2022/01/31 06:45:07;;;;;;;11.15;4.10;;;4.00;99.90;;;;;;4906352;28;89062;-79
2022/01/31 06:47:33;;;;;;;17.92;4.28;;;4.00;99.90;;;;;;4904784;28;91065;-79
2022/01/31 06:49:59;;;;;;;16.00;4.68;;;4.00;99.90;;;;;;4910523;28;88840;-82
2022/01/31 06:52:26;;;;;;;16.00;4.85;;;3.90;99.90;;;;;;4912356;28;89215;-79
2022/01/31 06:54:54;;;;;;;12.88;4.55;;;3.80;99.90;;;;;;4908579;28;92236;-79
2022/01/31 06:57:23;;;;;;;18.02;5.55;;;3.80;99.90;;;;;;4908081;28;88967;-78
2022/01/31 06:59:49;;;;;;;13.73;4.80;;;3.90;99.90;;;;;;4905457;28;89094;-79
2022/01/31 07:02:14;;;;;;;14.82;4.20;;;3.80;99.90;;;;;;4907686;28;89196;-79
2022/01/31 07:04:40;;;;;;;18.48;6.55;;;3.80;99.90;;;;;;4906706;28;92941;-79
2022/01/31 07:07:05;;;;;;;15.05;4.50;;;3.80;99.90;;;;;;4905713;28;91830;-78
2022/01/31 07:09:33;;;;;;;17.73;4.90;;;3.80;99.90;;;;;;4905416;28;88879;-79
2022/01/31 07:12:00;;;;;;;11.40;5.03;;;3.80;99.90;;;;;;4905793;28;89255;-79
2022/01/31 07:14:32;;;;;;;12.55;4.45;;;3.80;99.90;;;;;;4908898;28;89724;-78
2022/01/31 07:17:00;;;;;;;11.32;4.20;;;3.80;99.90;;;;;;4911235;28;89048;-78
2022/01/31 07:19:28;;;;;;;16.15;4.90;;;3.80;99.90;;;;;;4913019;28;88934;-78
2022/01/31 07:21:54;;;;;;;15.80;5.80;;;3.80;99.90;;;;;;4913387;28;88936;-78
2022/01/31 07:25:02;;;;;;;12.95;4.65;;;3.80;99.90;;;;;;4911415;28;92300;-78
2022/01/31 07:27:12;;;;;;;15.98;5.00;;;3.70;99.90;;;;;;4915985;28;89393;-78
2022/01/31 07:29:38;;;;;;;14.38;5.82;;;3.70;99.90;;;;;;4912186;28;88832;-78
2022/01/31 07:32:07;;;;;;;11.00;4.47;;;3.70;99.90;;;;;;4914335;28;89225;-77
2022/01/31 07:34:33;;;;;;;10.05;4.57;;;3.70;99.90;;;;;;4914426;28;94147;-79
2022/01/31 07:36:58;;;;;;;12.10;5.03;;;3.70;99.90;;;;;;4916099;28;89531;-80
2022/01/31 07:39:24;;;;;;;14.00;4.53;;;3.70;99.90;;;;;;4913571;28;88303;-79
2022/01/31 07:41:50;;;;;;;8.90;4.88;;;3.70;99.90;;;;;;4910201;28;88448;-80
2022/01/31 07:44:16;;;;;;;12.02;4.85;;;3.70;99.90;;;;;;4909784;28;89462;-80
2022/01/31 07:46:42;;;;;;;11.52;5.18;;;3.70;99.90;;;;;;4907919;28;89188;-80
2022/01/31 07:49:08;;;;;;;13.05;5.38;;;3.70;99.90;;;;;;4924417;28;88883;-80
2022/01/31 07:51:38;;;;;;;8.57;4.80;;;3.80;99.90;;;;;;4921752;28;89285;-80
2022/01/31 07:54:04;;;;;;;10.73;4.82;;;3.80;99.90;;;;;;4922321;28;92973;-80
2022/01/31 07:56:29;;;;;;;10.32;4.43;;;3.80;99.90;;;;;;4920433;28;92118;-80
2022/01/31 07:58:55;;;;;;;9.07;5.18;;;3.80;99.90;;;;;;4920200;28;89070;-79
2022/01/31 08:01:21;;;;;;;8.68;4.80;;;3.80;99.90;;;;;;4921216;28;89323;-80
2022/01/31 08:03:49;;;;;;;11.80;4.15;;;3.80;99.90;;;;;;4905209;28;89929;-79
2022/01/31 08:06:14;;;;;;;8.13;4.80;;;3.90;99.90;;;;;;4920036;28;92029;-79
2022/01/31 08:08:41;;;;;;;9.50;4.50;;;3.90;99.90;;;;;;4919403;28;89059;-79
2022/01/31 08:11:07;;;;;;;8.82;4.47;;;3.90;99.90;;;;;;4919580;28;88912;-80
2022/01/31 08:13:33;;;;;;;7.95;4.28;;;4.00;99.90;;;;;;4919833;28;92580;-80
2022/01/31 08:16:02;;;;;;;7.65;4.20;;;3.90;99.90;;;;;;4920121;28;92411;-80
2022/01/31 08:18:30;;;;;;;6.53;4.00;;;4.00;99.90;;;;;;4920095;28;88910;-80
2022/01/31 08:20:55;;;;;;;7.95;4.05;;;4.00;99.90;;;;;;4920616;28;89280;-80
2022/01/31 08:23:21;;;;;;;7.93;3.80;;;4.00;99.90;;;;;;4906314;28;89276;-80
2022/01/31 08:25:49;;;;;;;12.23;4.38;;;4.00;99.90;;;;;;4921523;28;91851;-80
2022/01/31 08:28:21;;;;;;;7.72;3.85;;;4.10;99.90;;;;;;4921372;28;89093;-80
2022/01/31 08:31:02;;;;;;;6.95;3.88;;;4.10;99.90;;;;;;4926823;28;89272;-81
2022/01/31 08:33:43;;;;;;;10.32;4.15;;;4.20;99.90;;;;;;4925591;28;91391;-80
2022/01/31 08:36:09;;;;;;;7.25;3.75;;;4.20;99.90;;;;;;4926423;28;92204;-81
2022/01/31 08:38:36;;;;;;;8.13;3.53;;;4.30;99.90;;;;;;4927231;28;88955;-80
2022/01/31 08:41:03;;;;;;;8.75;3.45;;;4.40;99.90;;;;;;4913436;28;89243;-81
2022/01/31 08:43:29;;;;;;;4.63;2.72;;;4.40;99.90;;;;;;4924307;28;93177;-80
2022/01/31 08:45:56;;;;;;;4.80;3.08;;;4.50;99.90;;;;;;4927993;28;91680;-80
2022/01/31 08:48:24;;;;;;;7.97;3.30;;;4.60;99.90;;;;;;4925020;28;89676;-80
2022/01/31 08:50:51;;;;;;;5.53;2.65;;;4.80;99.90;;;;;;4910891;28;88992;-80
2022/01/31 08:53:17;;;;;;;5.50;2.67;;;4.90;99.90;;;;;;4924464;28;90846;-81
2022/01/31 08:56:00;;;;;;;4.38;2.90;;;5.00;99.90;;;;;;4924075;28;92522;-80
2022/01/31 08:58:26;;;;;;;5.03;2.83;;;5.00;99.90;;;;;;4924700;28;89215;-79
2022/01/31 09:01:00;;;;;;;5.50;2.92;;;5.10;99.90;;;;;;4910077;28;88806;-79
2022/01/31 09:04:00;;;;;;;7.78;3.17;;;5.20;99.90;;;;;;4923903;28;91426;-80
2022/01/31 09:06:28;;;;;;;4.63;2.50;;;5.40;99.90;;;;;;4908545;28;89351;-79
2022/01/31 09:08:53;;;;;;;4.93;2.50;;;5.50;99.90;;;;;;4922765;28;89085;-79
2022/01/31 09:11:19;;;;;;;5.78;3.08;;;5.30;99.90;;;;;;4908728;28;89035;-79
2022/01/31 09:13:46;;;;;;;5.85;2.78;;;5.20;99.90;;;;;;4907545;28;91221;-80
2022/01/31 09:16:12;;;;;;;6.28;2.40;;;5.10;99.90;;;;;;4923280;28;92106;-80
2022/01/31 09:18:37;;;;;;;7.00;3.42;;;5.20;99.90;;;;;;4923825;28;89221;-80
2022/01/31 09:21:04;;;;;;;7.97;2.80;;;5.20;99.90;;;;;;4924186;28;89222;-79
2022/01/31 09:23:30;;;;;;;4.38;2.42;;;5.20;99.90;;;;;;4923937;28;90942;-78
2022/01/31 09:25:57;;;;;;;6.93;2.80;;;5.20;99.90;;;;;;4908175;28;88919;-79
2022/01/31 09:28:24;;;;;;;5.25;2.80;;;5.20;99.90;;;;;;4908788;28;89032;-78
2022/01/31 09:30:52;;;;;;;6.47;3.20;;;5.20;99.90;;;;;;4938229;28;89179;-80
2022/01/31 09:33:17;;;;;;;4.85;2.85;;;5.20;99.90;;;;;;4930931;28;93134;-79
2022/01/31 09:35:44;;;;;;;5.78;3.00;;;5.30;99.90;;;;;;4920145;28;90363;-78
2022/01/31 09:38:12;;;;;;;4.35;2.40;;;5.20;99.90;;;;;;4920153;28;88980;-79
2022/01/31 09:40:38;;;;;;;8.40;2.70;;;5.30;99.90;;;;;;4920100;28;88938;-78
2022/01/31 09:48:32;;;;;;;8.23;2.58;;;5.30;99.90;;;;;;4901258;28;89231;-78
2022/01/31 09:51:04;;;;;;;4.60;1.90;;;5.30;99.90;;;;;;4916450;28;89279;-76
2022/01/31 09:53:32;;;;;;;5.20;2.40;;;5.40;99.90;;;;;;4901988;28;89066;-79
2022/01/31 09:55:58;;;;;;;3.88;2.10;;;5.40;99.90;;;;;;4902639;28;89538;-78
2022/01/31 09:58:29;;;;;;;5.65;1.80;;;5.30;99.90;;;;;;4916632;28;89053;-79
2022/01/31 10:01:08;;;;;;;4.45;2.00;;;5.40;99.90;;;;;;4916347;28;88937;-79
2022/01/31 10:03:57;;;;;;;4.10;1.90;;;5.40;99.90;;;;;;4915528;28;91757;-79
2022/01/31 10:06:24;;;;;;;2.97;1.77;;;5.30;99.90;;;;;;4916484;28;91115;-78
2022/01/31 10:09:09;;;;;;;8.05;2.33;;;5.30;99.90;;;;;;4900434;28;89098;-78
2022/01/31 10:11:44;;;;;;;3.83;2.22;;;5.40;99.90;;;;;;4915733;28;90759;-78
2022/01/31 10:17:35;;;;;;;2.67;1.90;;;5.50;99.90;;;;;;4905600;28;89048;-79
2022/01/31 10:20:32;;;;;;;4.05;1.80;;;5.60;99.90;;;;;;4906137;28;89031;-79
2022/01/31 10:23:16;;;;;;;4.05;2.10;;;5.60;99.90;;;;;;4905142;28;89135;-79
2022/01/31 10:25:45;;;;;;;3.42;1.63;;;5.80;99.90;;;;;;4919319;28;93105;-80
2022/01/31 10:28:18;;;;;;;4.45;1.98;;;5.80;99.90;;;;;;4919580;28;92142;-79
2022/01/31 10:30:46;;;;;;;4.10;2.60;;;5.80;99.90;;;;;;4919349;28;89026;-78
2022/01/31 10:33:13;;;;;;;7.78;2.55;;;5.70;99.90;;;;;;4905716;28;89163;-79
2022/01/31 10:35:40;;;;;;;5.25;1.65;;;5.60;99.90;;;;;;4919287;28;91912;-78
2022/01/31 10:38:14;;;;;;;3.15;1.92;;;5.60;99.90;;;;;;4919295;28;90847;-79
2022/01/31 10:54:38;;;;;;;6.15;2.70;;;5.50;99.90;;;;;;4883430;28;89017;-79
2022/01/31 10:57:04;;;;;;;5.65;2.30;;;5.60;99.90;;;;;;4884902;28;89143;-78
2022/01/31 10:59:34;;;;;;;4.38;2.08;;;5.60;99.90;;;;;;4884472;28;89173;-79
2022/01/31 11:02:02;;;;;;;6.00;2.25;;;5.50;99.90;;;;;;4883231;28;89065;-79
2022/01/31 11:04:39;;;;;;;3.85;2.10;;;5.50;99.90;;;;;;4883208;28;89207;-80
2022/01/31 11:07:16;;;;;;;4.68;2.30;;;5.50;99.90;;;;;;4884930;28;90232;-79
2022/01/31 11:09:46;;;;;;;4.10;2.08;;;5.60;99.90;;;;;;4883466;28;91409;-79
2022/01/31 11:12:15;;;;;;;6.97;2.30;;;5.60;99.90;;;;;;4884068;28;89042;-80
2022/01/31 11:14:43;;;;;;;3.97;1.88;;;5.80;99.90;;;;;;4883600;28;89282;-80
2022/01/31 11:17:15;;;;;;;4.18;2.00;;;5.80;99.90;;;;;;4885126;28;91254;-80
2022/01/31 11:19:45;;;;;;;3.80;2.20;;;5.90;99.90;;;;;;4889424;28;90887;-78
2022/01/31 11:22:13;;;;;;;8.00;2.45;;;5.90;99.90;;;;;;4883994;28;88891;-78
2022/01/31 11:24:47;;;;;;;7.50;2.45;;;6.00;99.90;;;;;;4882304;28;89260;-79
2022/01/31 11:27:24;;;;;;;5.10;2.30;;;6.10;99.90;;;;;;4883465;28;92060;-81
2022/01/31 11:29:55;;;;;;;5.75;2.10;;;6.10;99.90;;;;;;4887613;28;89810;-80
2022/01/31 11:32:24;;;;;;;5.43;2.25;;;6.10;99.90;;;;;;4889896;28;88890;-80
2022/01/31 11:34:50;;;;;;;4.78;2.35;;;6.10;99.90;;;;;;4886734;28;89162;-80
2022/01/31 11:37:17;;;;;;;5.90;2.45;;;6.00;99.90;;;;;;4886833;28;90178;-80
2022/01/31 11:39:46;;;;;;;5.97;2.65;;;5.90;99.90;;;;;;4885089;28;88956;-81
2022/01/31 11:42:13;;;;;;;4.40;1.95;;;5.90;99.90;;;;;;4884942;28;88903;-83
2022/01/31 11:44:44;;;;;;;5.40;2.00;;;5.80;99.90;;;;;;4883549;28;89047;-81
2022/01/31 11:47:10;;;;;;;3.67;2.00;;;5.70;99.90;;;;;;4885762;28;89908;-81
2022/01/31 11:49:50;;;;;;;6.53;2.15;;;5.60;99.90;;;;;;4885030;28;90702;-83
2022/01/31 11:52:17;;;;;;;5.95;2.10;;;5.60;99.90;;;;;;4885847;28;89101;-81
2022/01/31 11:54:55;;;;;;;4.70;2.10;;;5.50;99.90;;;;;;4886618;28;88948;-81
2022/01/31 11:57:26;;;;;;;4.60;1.98;;;5.50;99.90;;;;;;4886422;28;90645;-82
2022/01/31 11:59:58;;;;;;;8.23;2.30;;;5.50;99.90;;;;;;4886260;28;89074;-83
2022/01/31 12:02:25;;;;;;;4.93;1.92;;;5.40;99.90;;;;;;4910215;23;89105;-74
2022/01/31 12:04:52;;;;;;;4.70;1.98;;;5.40;99.90;;;;;;4901528;28;89029;-73
2022/01/31 12:07:43;;;;;;;4.30;1.92;;;5.30;99.90;;;;;;4902775;28;89862;-73
2022/01/31 12:10:22;;;;;;;4.45;1.77;;;5.20;99.90;;;;;;4904625;28;89515;-75
2022/01/31 12:12:53;;;;;;;4.68;2.10;;;5.20;99.90;;;;;;4901872;28;89069;-74
2022/01/31 12:24:07;;;;;;;5.68;1.73;;;5.30;99.90;;;;;;4902519;28;89161;-74
2022/01/31 12:26:39;;;;;;;5.05;1.60;;;5.40;99.90;;;;;;4903571;28;89071;-73
2022/01/31 12:29:13;;;;;;;5.10;1.73;;;5.60;99.90;;;;;;4902176;28;89965;-74
2022/01/31 12:31:42;;;;;;;4.97;1.63;;;5.60;99.90;;;;;;4902125;28;88981;-77
2022/01/31 12:34:22;;;;;;;4.75;1.48;;;5.80;99.90;;;;;;4901915;28;89052;-74
2022/01/31 12:36:58;;;;;;;6.03;1.50;;;5.90;99.90;;;;;;4901663;28;88827;-73
2022/01/31 12:39:39;;;;;;;6.40;1.50;;;5.80;99.90;;;;;;4902283;28;89495;-76
2022/01/31 12:43:25;;;;;;;5.15;1.40;;;5.80;99.90;;;;;;4901895;28;89045;-73
2022/01/31 12:45:27;;;;;;;5.03;1.33;;;5.80;99.90;;;;;;4904025;28;89127;-73
2022/01/31 12:48:15;;;;;;;4.25;1.70;;;5.80;99.90;;;;;;4902771;28;89132;-73
2022/01/31 12:51:03;;;;;;;4.35;1.60;;;5.70;99.90;;;;;;4901903;28;89075;-74
2022/01/31 12:56:03;;;;;;;4.32;2.28;;;5.50;99.90;;;;;;4901180;28;88825;-73
2022/01/31 12:58:38;;;;;;;4.00;1.70;;;5.40;99.90;;;;;;4901661;28;88830;-74
2022/01/31 13:01:24;;;;;;;3.75;1.00;;;5.50;99.90;;;;;;4916448;28;89056;-74
2022/01/31 13:03:52;;;;;;;5.00;1.60;;;5.50;99.90;;;;;;4901361;28;89146;-74
2022/01/31 13:06:33;;;;;;;5.30;1.80;;;5.40;99.90;;;;;;4902087;28;88967;-74
2022/01/31 13:09:10;;;;;;;6.18;1.90;;;5.40;99.90;;;;;;4901419;28;88845;-73
2022/01/31 13:11:38;;;;;;;4.97;1.90;;;5.20;99.90;;;;;;4901716;28;90002;-74
2022/01/31 13:14:15;;;;;;;5.22;1.80;;;5.10;99.90;;;;;;4901118;28;89514;-74
2022/01/31 13:16:57;;;;;;;8.20;2.50;;;5.00;99.90;;;;;;4901842;28;89021;-74
2022/01/31 13:19:24;;;;;;;5.32;1.63;;;4.90;99.90;;;;;;4902285;28;88882;-75
2022/01/31 13:21:52;;;;;;;4.03;1.60;;;4.70;99.90;;;;;;4901475;28;90053;-76
2022/01/31 13:24:19;;;;;;;4.55;2.03;;;4.70;99.90;;;;;;4899135;28;89149;-74
2022/01/31 13:26:56;;;;;;;6.93;2.10;;;4.70;99.90;;;;;;4901419;28;89139;-76
2022/01/31 13:29:31;;;;;;;10.20;4.05;;;4.70;99.90;;;;;;4901295;28;88874;-75
2022/01/31 13:31:57;;;;;;;10.50;2.50;;;4.60;99.90;;;;;;4900979;28;89447;-75
2022/01/31 13:34:40;;;;;;;10.30;2.80;;;4.60;99.90;;;;;;4897045;28;89327;-75
2022/01/31 13:37:30;;;;;;;8.02;2.45;;;4.50;99.90;;;;;;4921100;28;88991;-75
2022/01/31 13:39:57;;;;;;;7.78;2.65;;;4.40;99.90;;;;;;4917427;28;88953;-75
2022/01/31 13:42:30;;;;;;;6.05;2.30;;;4.30;99.90;;;;;;4899419;28;91622;-74
2022/01/31 13:45:00;;;;;;;5.43;2.55;;;4.20;99.90;;;;;;4901545;28;89415;-74
2022/01/31 13:47:41;;;;;;;8.50;2.55;;;4.20;99.90;;;;;;4900789;28;89118;-76
2022/01/31 13:50:28;;;;;;;5.80;2.20;;;4.10;99.90;;;;;;4905479;28;89203;-76
2022/01/31 13:53:15;;;;;;;7.40;3.05;;;4.10;99.90;;;;;;4903074;28;92267;-75
2022/01/31 13:55:48;;;;;;;5.80;2.80;;;4.10;99.90;;;;;;4904550;28;89316;-75
2022/01/31 13:58:25;;;;;;;4.78;2.50;;;4.00;99.90;;;;;;4904662;28;89045;-77
2022/01/31 14:00:52;;;;;;;7.93;3.50;;;4.00;99.90;;;;;;4903771;28;88942;-76
2022/01/31 14:03:26;;;;;;;8.73;3.13;;;4.00;99.90;;;;;;4903311;28;89140;-76
2022/01/31 14:06:00;;;;;;;9.77;4.35;;;4.00;99.90;;;;;;4902431;28;91178;-76
2022/01/31 14:08:36;;;;;;;8.88;2.80;;;4.00;99.90;;;;;;4904604;28;89016;-76
2022/01/31 14:11:21;;;;;;;7.88;4.60;;;4.00;99.90;;;;;;4902019;28;88995;-76
2022/01/31 14:13:52;;;;;;;7.07;3.00;;;4.00;99.90;;;;;;4903680;28;89121;-75
2022/01/31 14:16:39;;;;;;;8.48;3.60;;;4.00;99.90;;;;;;4904718;28;88825;-77
2022/01/31 14:19:09;;;;;;;8.50;2.70;;;4.00;99.90;;;;;;4904667;28;89018;-77
2022/01/31 14:21:41;;;;;;;7.88;2.58;;;4.00;99.90;;;;;;4904240;28;88859;-77
2022/01/31 14:24:08;;;;;;;5.50;2.58;;;4.00;99.90;;;;;;4904177;28;93899;-76
2022/01/31 14:26:38;;;;;;;7.40;2.13;;;4.00;99.90;;;;;;4905934;28;89191;-75
2022/01/31 14:29:08;;;;;;;5.57;2.33;;;3.90;99.90;;;;;;4905203;28;89277;-75
2022/01/31 14:31:38;;;;;;;5.97;1.73;;;3.90;99.90;;;;;;4905869;28;89568;-76
2022/01/31 14:34:06;;;;;;;6.05;2.10;;;3.90;99.90;;;;;;4905984;28;91712;-76
2022/01/31 14:36:42;;;;;;;5.55;1.98;;;3.90;99.90;;;;;;4906406;28;89029;-76
2022/01/31 14:42:11;;;;;;;10.90;2.00;;;3.90;99.90;;;;;;4902193;28;89575;-74
2022/01/31 14:47:47;;;;;;;8.75;1.88;;;3.90;99.90;;;;;;4901628;28;88907;-71
2022/01/31 14:50:17;;;;;;;5.55;1.80;;;3.90;99.90;;;;;;4903298;28;88916;-71
2022/01/31 14:52:43;;;;;;;7.43;2.10;;;3.80;99.90;;;;;;4901875;28;89171;-72
2022/01/31 14:55:11;;;;;;;5.68;1.65;;;3.80;99.90;;;;;;4903515;28;89668;-72
2022/01/31 14:57:38;;;;;;;8.85;2.00;;;3.80;99.90;;;;;;4915344;28;89448;-72
2022/01/31 15:00:07;;;;;;;7.78;1.70;;;3.80;99.90;;;;;;4902407;28;89294;-72
2022/01/31 15:02:32;;;;;;;8.68;1.60;;;3.80;99.90;;;;;;4902432;28;88989;-73
2022/01/31 15:05:07;;;;;;;6.15;1.77;;;3.80;99.90;;;;;;4901763;28;92250;-73
2022/01/31 15:07:33;;;;;;;7.15;2.00;;;3.70;99.90;;;;;;4902342;28;89285;-73
2022/01/31 15:09:59;;;;;;;9.27;1.83;;;3.70;99.90;;;;;;4903289;28;89459;-73
2022/01/31 15:12:24;;;;;;;8.55;1.73;;;3.70;99.90;;;;;;4901440;28;89287;-73
2022/01/31 15:14:50;;;;;;;8.20;1.70;;;3.70;99.90;;;;;;4901474;28;92607;-74
2022/01/31 15:17:16;;;;;;;4.28;1.83;;;3.70;99.90;;;;;;4902896;28;88935;-72
2022/01/31 15:19:41;;;;;;;5.40;1.50;;;3.70;99.90;;;;;;4902758;28;88922;-73
2022/01/31 15:22:07;;;;;;;8.35;1.80;;;3.60;99.90;;;;;;4901278;28;89361;-73
2022/01/31 15:24:35;;;;;;;4.90;2.10;;;3.70;99.90;;;;;;4902610;28;90163;-73
2022/01/31 15:27:00;;;;;;;9.80;2.35;;;3.70;99.90;;;;;;4903018;28;89604;-72
2022/01/31 15:29:26;;;;;;;9.13;2.55;;;3.70;99.90;;;;;;4902596;28;89154;-73
2022/01/31 15:31:52;;;;;;;6.55;2.10;;;3.70;99.90;;;;;;4902662;28;88891;-72
2022/01/31 15:34:17;;;;;;;7.55;1.90;;;3.70;99.90;;;;;;4906530;28;89734;-73
2022/01/31 15:36:43;;;;;;;6.10;2.03;;;3.70;99.90;;;;;;4905532;28;89831;-72
2022/01/31 15:39:14;;;;;;;9.32;2.65;;;3.70;99.90;;;;;;4902908;28;88995;-72
2022/01/31 15:41:40;;;;;;;8.60;2.17;;;3.80;99.90;;;;;;4897418;28;89563;-72
2022/01/31 15:44:14;;;;;;;15.65;2.75;;;3.70;99.90;;;;;;4882625;28;89194;-72
2022/01/31 15:46:40;;;;;;;9.98;2.58;;;3.70;99.90;;;;;;4883425;28;89276;-71
2022/01/31 15:49:07;;;;;;;7.88;2.45;;;3.70;99.90;;;;;;4883470;28;89165;-74
2022/01/31 15:51:33;;;;;;;9.32;2.30;;;3.80;99.90;;;;;;4883012;28;89701;-76
2022/01/31 15:53:59;;;;;;;7.47;2.53;;;3.80;99.90;;;;;;4883309;28;90289;-74
2022/01/31 15:56:24;;;;;;;7.75;2.60;;;3.80;99.90;;;;;;4888651;28;89966;-72
2022/01/31 15:58:51;;;;;;;10.35;2.25;;;3.80;99.90;;;;;;4902055;28;89091;-72
2022/01/31 16:01:18;;;;;;;7.25;1.95;;;3.80;99.90;;;;;;4902255;28;89147;-72
2022/01/31 16:03:44;;;;;;;6.90;1.90;;;3.90;99.90;;;;;;4901539;28;89683;-72
2022/01/31 16:06:09;;;;;;;5.20;1.58;;;3.90;99.90;;;;;;4901630;28;90409;-72
2022/01/31 16:08:35;;;;;;;5.20;1.65;;;3.90;99.90;;;;;;4902364;28;89081;-72
2022/01/31 16:11:01;;;;;;;7.20;1.30;;;3.90;99.90;;;;;;4900959;28;89182;-72
2022/01/31 16:13:27;;;;;;;6.50;1.40;;;3.90;99.90;;;;;;4901391;28;89745;-72
2022/01/31 16:15:52;;;;;;;4.30;1.23;;;4.00;99.90;;;;;;4910201;28;90474;-71
2022/01/31 16:18:19;;;;;;;5.07;1.45;;;4.00;99.90;;;;;;4921351;28;89456;-71
2022/01/31 16:20:45;;;;;;;3.88;1.35;;;4.10;99.90;;;;;;4921643;28;89153;-72
2022/01/31 16:23:11;;;;;;;6.85;1.42;;;4.10;99.90;;;;;;4921250;28;89593;-71
2022/01/31 16:25:42;;;;;;;5.50;2.35;;;4.20;99.90;;;;;;4921746;28;88949;-72
2022/01/31 16:28:14;;;;;;;2.20;1.13;;;4.20;99.90;;;;;;4921967;28;88931;-73
2022/01/31 16:30:40;;;;;;;6.60;1.52;;;4.20;99.90;;;;;;4921217;28;89078;-72
2022/01/31 16:33:05;;;;;;;6.60;1.33;;;4.20;99.90;;;;;;4920196;28;89149;-72
2022/01/31 16:35:31;;;;;;;4.28;1.20;;;4.20;99.90;;;;;;4920654;28;89059;-72
2022/01/31 16:37:57;;;;;;;2.63;1.17;;;4.20;99.90;;;;;;4921470;28;89083;-71
2022/01/31 16:40:23;;;;;;;6.55;1.23;;;4.30;99.90;;;;;;4936391;28;89236;-73
2022/01/31 16:42:49;;;;;;;5.65;1.10;;;4.30;99.90;;;;;;4921787;28;89645;-73
2022/01/31 16:45:16;;;;;;;2.15;0.90;;;4.40;99.90;;;;;;4921509;28;89683;-72
2022/01/31 16:47:46;;;;;;;8.40;1.30;;;4.30;99.90;;;;;;4922050;28;88967;-79
2022/01/31 16:50:22;;;;;;;5.55;1.23;;;4.30;99.90;;;;;;4923291;28;88898;-72
2022/01/31 16:52:47;;;;;;;5.65;1.45;;;4.30;99.90;;;;;;4914719;28;89630;-72
2022/01/31 16:55:16;;;;;;;3.70;1.40;;;4.30;99.90;;;;;;4903392;28;89117;-71
2022/01/31 16:57:44;;;;;;;3.88;1.00;;;4.30;99.90;;;;;;4903784;28;89025;-79
2022/01/31 17:00:12;;;;;;;5.60;1.20;;;4.30;99.90;;;;;;4903321;28;88929;-72
2022/01/31 17:02:38;;;;;;;3.90;1.25;;;4.30;99.90;;;;;;4903955;28;89017;-72
2022/01/31 17:05:05;;;;;;;5.15;1.50;;;4.30;99.90;;;;;;4902910;28;89046;-72
2022/01/31 17:07:31;;;;;;;6.50;1.60;;;4.30;99.90;;;;;;4899667;28;88867;-72
2022/01/31 17:09:57;;;;;;;7.47;2.35;;;4.30;99.90;;;;;;4903251;28;89215;-73
2022/01/31 17:12:26;;;;;;;5.40;2.15;;;4.30;99.90;;;;;;4902023;28;91405;-73
2022/01/31 17:14:51;;;;;;;7.28;1.48;;;4.20;99.90;;;;;;4901194;28;89198;-72
2022/01/31 17:17:17;;;;;;;3.05;1.65;;;4.20;99.90;;;;;;4902133;28;89054;-72
2022/01/31 17:19:43;;;;;;;4.80;1.73;;;4.20;99.90;;;;;;4902080;28;89203;-72
2022/01/31 17:22:09;;;;;;;9.15;1.88;;;4.20;99.90;;;;;;4901417;28;89448;-71
2022/01/31 17:24:35;;;;;;;7.85;1.63;;;4.20;99.90;;;;;;4901537;28;88891;-71
2022/01/31 17:27:00;;;;;;;6.30;1.55;;;4.20;99.90;;;;;;4901696;28;88861;-71
2022/01/31 17:29:26;;;;;;;4.90;1.63;;;4.20;99.90;;;;;;4901439;28;88808;-71
2022/01/31 17:31:52;;;;;;;6.18;1.67;;;4.20;99.90;;;;;;4901460;28;90204;-71
2022/01/31 17:34:18;;;;;;;7.00;1.80;;;4.20;99.90;;;;;;4901034;28;89176;-72
2022/01/31 17:36:44;;;;;;;5.72;2.15;;;4.10;99.90;;;;;;4901949;28;88933;-72
2022/01/31 17:39:09;;;;;;;6.22;2.00;;;4.10;99.90;;;;;;4901601;28;88862;-72
2022/01/31 17:41:39;;;;;;;7.68;2.10;;;4.20;99.90;;;;;;4901395;28;89635;-72
2022/01/31 17:44:17;;;;;;;7.03;1.85;;;4.20;99.90;;;;;;4900637;28;88997;-72
2022/01/31 17:46:44;;;;;;;5.43;1.77;;;4.20;99.90;;;;;;4901694;28;88974;-74
2022/01/31 17:49:10;;;;;;;3.92;1.38;;;4.20;99.90;;;;;;4901666;28;89240;-77
2022/01/31 17:51:35;;;;;;;6.05;1.70;;;4.30;99.90;;;;;;4901327;28;90277;-71
2022/01/31 17:54:01;;;;;;;4.65;1.58;;;4.20;99.90;;;;;;4899358;28;90386;-75
2022/01/31 17:56:26;;;;;;;6.63;2.00;;;4.20;99.90;;;;;;4901615;28;89116;-79
2022/01/31 17:58:52;;;;;;;5.75;1.85;;;4.20;99.90;;;;;;4917263;28;89355;-78
2022/01/31 18:01:18;;;;;;;6.00;1.88;;;4.20;99.90;;;;;;4916841;28;91467;-77
2022/01/31 18:03:44;;;;;;;6.47;1.95;;;4.20;99.90;;;;;;4900649;28;90697;-71
2022/01/31 18:06:09;;;;;;;2.58;1.20;;;4.20;99.90;;;;;;4899730;28;89415;-73
2022/01/31 18:08:35;;;;;;;2.95;1.40;;;4.20;99.90;;;;;;4901781;28;88888;-74
2022/01/31 18:11:01;;;;;;;5.95;1.30;;;4.30;99.90;;;;;;4902174;28;89965;-77
2022/01/31 18:13:26;;;;;;;6.15;1.67;;;4.30;99.90;;;;;;4902152;28;88858;-76
2022/01/31 18:15:52;;;;;;;4.57;1.45;;;4.30;99.90;;;;;;4916457;28;89030;-77
2022/01/31 18:18:19;;;;;;;4.95;1.10;;;4.30;99.90;;;;;;4901481;28;89012;-77
2022/01/31 18:20:45;;;;;;;6.53;1.73;;;4.30;99.90;;;;;;4902288;28;89325;-72
2022/01/31 18:23:10;;;;;;;4.88;1.50;;;4.30;99.90;;;;;;4901328;28;89121;-74
2022/01/31 18:25:37;;;;;;;5.03;1.42;;;4.30;99.90;;;;;;4901091;28;88973;-75
2022/01/31 18:28:03;;;;;;;5.28;1.60;;;4.20;99.90;;;;;;4915936;28;89016;-73
2022/01/31 18:30:37;;;;;;;4.43;1.58;;;4.20;99.90;;;;;;4901172;28;89061;-73
2022/01/31 18:33:02;;;;;;;3.85;1.30;;;4.20;99.90;;;;;;4900299;28;89537;-73
2022/01/31 18:35:28;;;;;;;4.95;1.52;;;4.20;99.90;;;;;;4902416;28;89321;-73
2022/01/31 18:37:54;;;;;;;3.47;1.38;;;4.10;99.90;;;;;;4905370;28;89238;-79
2022/01/31 18:40:21;;;;;;;4.35;1.38;;;4.10;99.90;;;;;;4915725;28;91890;-75
2022/01/31 18:42:47;;;;;;;4.28;1.27;;;4.10;99.90;;;;;;4903646;28;89477;-75
2022/01/31 18:45:20;;;;;;;3.75;1.15;;;4.10;99.90;;;;;;4902817;28;89455;-75